sensor_id;sensor_type;location;lat;lon;timestamp;P1;durP1;ratioP1;P2;durP2;ratioP2
21927;SDS011;11128;51.096;17.190;2023-01-20T00:02:11;91.43;;;37.15;;
21927;SDS011;11128;51.096;17.190;2023-01-20T00:07:13;110.38;;;41.67;;
21927;SDS011;11128;51.096;17.190;2023-01-20T00:12:14;113.43;;;41.88;;
21927;SDS011;11128;51.096;17.190;2023-01-20T00:17:15;114.10;;;43.88;;
21927;SDS011;11128;51.096;17.190;2023-01-20T00:22:17;120.30;;;44.08;;
21927;SDS011;11128;51.096;17.190;2023-01-20T00:27:18;120.22;;;43.63;;
21927;SDS011;11128;51.096;17.190;2023-01-20T00:32:20;109.43;;;42.00;;
21927;SDS011;11128;51.096;17.190;2023-01-20T00:37:21;130.68;;;46.50;;
21927;SDS011;11128;51.096;17.190;2023-01-20T00:42:23;123.38;;;43.72;;
21927;SDS011;11128;51.096;17.190;2023-01-20T00:47:24;99.35;;;40.78;;
21927;SDS011;11128;51.096;17.190;2023-01-20T00:52:25;100.38;;;41.40;;
21927;SDS011;11128;51.096;17.190;2023-01-20T00:57:26;121.18;;;42.88;;
21927;SDS011;11128;51.096;17.190;2023-01-20T01:02:28;122.53;;;42.15;;
21927;SDS011;11128;51.096;17.190;2023-01-20T01:07:29;117.18;;;42.78;;
21927;SDS011;11128;51.096;17.190;2023-01-20T01:12:31;117.30;;;42.25;;
21927;SDS011;11128;51.096;17.190;2023-01-20T01:17:32;102.90;;;39.05;;
21927;SDS011;11128;51.096;17.190;2023-01-20T01:22:33;103.15;;;41.45;;
21927;SDS011;11128;51.096;17.190;2023-01-20T01:27:35;97.15;;;38.83;;
21927;SDS011;11128;51.096;17.190;2023-01-20T01:32:36;89.53;;;37.40;;
21927;SDS011;11128;51.096;17.190;2023-01-20T01:37:38;111.78;;;40.35;;
21927;SDS011;11128;51.096;17.190;2023-01-20T01:42:39;111.85;;;40.10;;
21927;SDS011;11128;51.096;17.190;2023-01-20T01:47:42;116.97;;;41.83;;
21927;SDS011;11128;51.096;17.190;2023-01-20T01:52:46;105.00;;;40.67;;
21927;SDS011;11128;51.096;17.190;2023-01-20T01:57:49;111.72;;;41.50;;
21927;SDS011;11128;51.096;17.190;2023-01-20T02:02:52;106.32;;;40.47;;
21927;SDS011;11128;51.096;17.190;2023-01-20T02:07:54;114.85;;;41.55;;
21927;SDS011;11128;51.096;17.190;2023-01-20T02:12:58;110.28;;;37.35;;
21927;SDS011;11128;51.096;17.190;2023-01-20T02:34:48;104.45;;;37.92;;
21927;SDS011;11128;51.096;17.190;2023-01-20T02:40:02;94.20;;;36.75;;
21927;SDS011;11128;51.096;17.190;2023-01-20T02:50:57;91.03;;;37.25;;
21927;SDS011;11128;51.096;17.190;2023-01-20T02:56:02;94.28;;;33.80;;
21927;SDS011;11128;51.096;17.190;2023-01-20T03:01:07;86.18;;;35.45;;
21927;SDS011;11128;51.096;17.190;2023-01-20T03:06:14;91.50;;;35.85;;
21927;SDS011;11128;51.096;17.190;2023-01-20T03:11:19;88.13;;;35.28;;
21927;SDS011;11128;51.096;17.190;2023-01-20T03:16:21;94.53;;;36.20;;
21927;SDS011;11128;51.096;17.190;2023-01-20T03:21:24;91.07;;;35.13;;
21927;SDS011;11128;51.096;17.190;2023-01-20T03:26:26;91.93;;;36.22;;
21927;SDS011;11128;51.096;17.190;2023-01-20T03:31:38;97.65;;;35.88;;
21927;SDS011;11128;51.096;17.190;2023-01-20T03:36:44;90.70;;;36.58;;
21927;SDS011;11128;51.096;17.190;2023-01-20T03:52:45;91.07;;;35.65;;
21927;SDS011;11128;51.096;17.190;2023-01-20T03:58:07;93.03;;;36.05;;
21927;SDS011;11128;51.096;17.190;2023-01-20T04:03:22;95.82;;;35.53;;
21927;SDS011;11128;51.096;17.190;2023-01-20T04:08:36;97.63;;;36.92;;
21927;SDS011;11128;51.096;17.190;2023-01-20T04:13:42;99.75;;;35.58;;
21927;SDS011;11128;51.096;17.190;2023-01-20T04:18:45;99.03;;;34.78;;
21927;SDS011;11128;51.096;17.190;2023-01-20T04:23:54;100.18;;;36.55;;
21927;SDS011;11128;51.096;17.190;2023-01-20T04:29:03;102.68;;;36.25;;
21927;SDS011;11128;51.096;17.190;2023-01-20T04:34:08;104.82;;;39.17;;
21927;SDS011;11128;51.096;17.190;2023-01-20T04:39:18;93.47;;;34.70;;
21927;SDS011;11128;51.096;17.190;2023-01-20T04:44:19;91.55;;;35.85;;
21927;SDS011;11128;51.096;17.190;2023-01-20T04:49:21;84.90;;;35.83;;
21927;SDS011;11128;51.096;17.190;2023-01-20T04:54:22;88.85;;;34.05;;
21927;SDS011;11128;51.096;17.190;2023-01-20T04:59:24;93.43;;;33.88;;
21927;SDS011;11128;51.096;17.190;2023-01-20T05:04:25;93.00;;;36.13;;
21927;SDS011;11128;51.096;17.190;2023-01-20T05:09:26;98.50;;;36.92;;
21927;SDS011;11128;51.096;17.190;2023-01-20T05:14:28;113.75;;;37.83;;
21927;SDS011;11128;51.096;17.190;2023-01-20T05:19:29;85.55;;;34.25;;
21927;SDS011;11128;51.096;17.190;2023-01-20T05:24:31;99.10;;;35.78;;
21927;SDS011;11128;51.096;17.190;2023-01-20T05:29:32;107.40;;;37.45;;
21927;SDS011;11128;51.096;17.190;2023-01-20T05:34:34;104.05;;;39.53;;
21927;SDS011;11128;51.096;17.190;2023-01-20T05:39:35;115.97;;;43.75;;
21927;SDS011;11128;51.096;17.190;2023-01-20T05:44:37;114.13;;;44.00;;
21927;SDS011;11128;51.096;17.190;2023-01-20T05:49:39;102.50;;;42.92;;
21927;SDS011;11128;51.096;17.190;2023-01-20T05:54:40;91.63;;;37.78;;
21927;SDS011;11128;51.096;17.190;2023-01-20T05:59:45;97.90;;;36.63;;
21927;SDS011;11128;51.096;17.190;2023-01-20T06:04:51;100.20;;;38.10;;
21927;SDS011;11128;51.096;17.190;2023-01-20T06:09:52;94.10;;;37.80;;
21927;SDS011;11128;51.096;17.190;2023-01-20T06:14:54;106.70;;;39.80;;
21927;SDS011;11128;51.096;17.190;2023-01-20T06:19:55;97.07;;;39.60;;
21927;SDS011;11128;51.096;17.190;2023-01-20T06:24:57;101.78;;;37.63;;
21927;SDS011;11128;51.096;17.190;2023-01-20T06:29:59;92.35;;;35.03;;
21927;SDS011;11128;51.096;17.190;2023-01-20T06:35:00;91.13;;;33.28;;
21927;SDS011;11128;51.096;17.190;2023-01-20T06:40:02;83.63;;;32.22;;
21927;SDS011;11128;51.096;17.190;2023-01-20T06:45:04;82.20;;;32.78;;
21927;SDS011;11128;51.096;17.190;2023-01-20T06:50:05;77.00;;;32.53;;
21927;SDS011;11128;51.096;17.190;2023-01-20T06:55:07;82.95;;;32.15;;
21927;SDS011;11128;51.096;17.190;2023-01-20T07:00:09;75.03;;;31.83;;
21927;SDS011;11128;51.096;17.190;2023-01-20T07:05:13;89.28;;;33.25;;
21927;SDS011;11128;51.096;17.190;2023-01-20T07:10:14;81.45;;;32.97;;
21927;SDS011;11128;51.096;17.190;2023-01-20T07:15:16;86.80;;;33.67;;
21927;SDS011;11128;51.096;17.190;2023-01-20T07:20:17;84.03;;;34.55;;
21927;SDS011;11128;51.096;17.190;2023-01-20T07:25:18;84.13;;;34.42;;
21927;SDS011;11128;51.096;17.190;2023-01-20T07:30:20;88.25;;;34.80;;
21927;SDS011;11128;51.096;17.190;2023-01-20T07:35:21;85.32;;;33.28;;
21927;SDS011;11128;51.096;17.190;2023-01-20T07:40:23;107.25;;;43.28;;
21927;SDS011;11128;51.096;17.190;2023-01-20T07:45:24;102.30;;;40.50;;
21927;SDS011;11128;51.096;17.190;2023-01-20T07:50:25;98.25;;;38.17;;
21927;SDS011;11128;51.096;17.190;2023-01-20T07:55:27;102.38;;;41.42;;
21927;SDS011;11128;51.096;17.190;2023-01-20T08:00:28;93.53;;;39.45;;
21927;SDS011;11128;51.096;17.190;2023-01-20T08:05:31;101.03;;;36.83;;
21927;SDS011;11128;51.096;17.190;2023-01-20T08:10:34;85.90;;;35.95;;
21927;SDS011;11128;51.096;17.190;2023-01-20T08:15:41;93.95;;;37.97;;
21927;SDS011;11128;51.096;17.190;2023-01-20T08:20:44;97.55;;;42.35;;
21927;SDS011;11128;51.096;17.190;2023-01-20T08:25:46;126.35;;;54.70;;
21927;SDS011;11128;51.096;17.190;2023-01-20T08:30:47;113.90;;;48.78;;
21927;SDS011;11128;51.096;17.190;2023-01-20T08:35:49;106.55;;;47.45;;
21927;SDS011;11128;51.096;17.190;2023-01-20T08:40:50;97.13;;;41.50;;
21927;SDS011;11128;51.096;17.190;2023-01-20T08:46:01;94.05;;;38.13;;
21927;SDS011;11128;51.096;17.190;2023-01-20T08:51:07;86.25;;;37.05;;
21927;SDS011;11128;51.096;17.190;2023-01-20T08:56:10;89.43;;;39.47;;
21927;SDS011;11128;51.096;17.190;2023-01-20T09:01:19;100.85;;;40.58;;
21927;SDS011;11128;51.096;17.190;2023-01-20T09:06:22;95.50;;;41.55;;
21927;SDS011;11128;51.096;17.190;2023-01-20T09:11:24;105.43;;;45.22;;
21927;SDS011;11128;51.096;17.190;2023-01-20T09:16:26;104.85;;;46.15;;
21927;SDS011;11128;51.096;17.190;2023-01-20T09:21:27;110.38;;;45.50;;
21927;SDS011;11128;51.096;17.190;2023-01-20T09:26:29;103.43;;;43.65;;
21927;SDS011;11128;51.096;17.190;2023-01-20T09:31:38;94.32;;;43.85;;
21927;SDS011;11128;51.096;17.190;2023-01-20T09:36:53;98.72;;;43.40;;
21927;SDS011;11128;51.096;17.190;2023-01-20T09:41:56;87.90;;;38.20;;
21927;SDS011;11128;51.096;17.190;2023-01-20T09:52:32;86.65;;;39.50;;
21927;SDS011;11128;51.096;17.190;2023-01-20T09:57:58;102.25;;;43.72;;
21927;SDS011;11128;51.096;17.190;2023-01-20T10:03:50;99.85;;;44.13;;
21927;SDS011;11128;51.096;17.190;2023-01-20T10:08:42;97.40;;;42.03;;
21927;SDS011;11128;51.096;17.190;2023-01-20T10:13:58;102.85;;;43.80;;
21927;SDS011;11128;51.096;17.190;2023-01-20T10:19:10;105.50;;;45.15;;
21927;SDS011;11128;51.096;17.190;2023-01-20T10:24:30;97.35;;;43.92;;
21927;SDS011;11128;51.096;17.190;2023-01-20T10:29:44;97.88;;;42.03;;
21927;SDS011;11128;51.096;17.190;2023-01-20T10:34:49;94.57;;;42.50;;
21927;SDS011;11128;51.096;17.190;2023-01-20T10:45:04;82.65;;;37.20;;
21927;SDS011;11128;51.096;17.190;2023-01-20T10:55:34;102.07;;;40.60;;
21927;SDS011;11128;51.096;17.190;2023-01-20T11:00:50;92.97;;;42.03;;
21927;SDS011;11128;51.096;17.190;2023-01-20T11:05:51;93.47;;;41.67;;
21927;SDS011;11128;51.096;17.190;2023-01-20T11:10:54;95.70;;;42.47;;
21927;SDS011;11128;51.096;17.190;2023-01-20T11:15:58;112.43;;;49.72;;
21927;SDS011;11128;51.096;17.190;2023-01-20T11:21:04;107.25;;;46.25;;
21927;SDS011;11128;51.096;17.190;2023-01-20T11:36:39;125.50;;;54.47;;
21927;SDS011;11128;51.096;17.190;2023-01-20T11:41:41;119.85;;;49.40;;
21927;SDS011;11128;51.096;17.190;2023-01-20T11:46:42;116.97;;;51.60;;
21927;SDS011;11128;51.096;17.190;2023-01-20T11:56:59;92.25;;;39.83;;
21927;SDS011;11128;51.096;17.190;2023-01-20T12:07:11;110.72;;;44.10;;
21927;SDS011;11128;51.096;17.190;2023-01-20T12:12:28;99.85;;;43.05;;
21927;SDS011;11128;51.096;17.190;2023-01-20T12:28:56;81.93;;;37.25;;
21927;SDS011;11128;51.096;17.190;2023-01-20T12:34:08;91.22;;;38.42;;
21927;SDS011;11128;51.096;17.190;2023-01-20T12:44:23;83.65;;;37.00;;
21927;SDS011;11128;51.096;17.190;2023-01-20T13:11:01;88.70;;;39.53;;
21927;SDS011;11128;51.096;17.190;2023-01-20T13:21:29;97.85;;;43.67;;
21927;SDS011;11128;51.096;17.190;2023-01-20T13:26:31;105.78;;;43.80;;
21927;SDS011;11128;51.096;17.190;2023-01-20T13:36:37;110.53;;;46.22;;
21927;SDS011;11128;51.096;17.190;2023-01-20T13:41:48;107.68;;;46.47;;
21927;SDS011;11128;51.096;17.190;2023-01-20T13:46:51;88.85;;;41.25;;
21927;SDS011;11128;51.096;17.190;2023-01-20T13:51:53;100.63;;;42.88;;
21927;SDS011;11128;51.096;17.190;2023-01-20T13:57:31;101.43;;;45.15;;
21927;SDS011;11128;51.096;17.190;2023-01-20T14:02:35;95.68;;;42.35;;
21927;SDS011;11128;51.096;17.190;2023-01-20T14:07:37;101.57;;;46.47;;
21927;SDS011;11128;51.096;17.190;2023-01-20T14:12:38;104.65;;;46.97;;
21927;SDS011;11128;51.096;17.190;2023-01-20T14:17:41;107.40;;;47.25;;
21927;SDS011;11128;51.096;17.190;2023-01-20T14:22:42;115.85;;;51.97;;
21927;SDS011;11128;51.096;17.190;2023-01-20T14:27:43;71.15;;;31.15;;
21927;SDS011;11128;51.096;17.190;2023-01-20T14:32:45;52.13;;;22.35;;
21927;SDS011;11128;51.096;17.190;2023-01-20T14:37:48;38.80;;;18.70;;
21927;SDS011;11128;51.096;17.190;2023-01-20T14:43:33;41.15;;;19.95;;
21927;SDS011;11128;51.096;17.190;2023-01-20T14:48:19;41.25;;;17.95;;
21927;SDS011;11128;51.096;17.190;2023-01-20T14:53:21;39.00;;;17.80;;
21927;SDS011;11128;51.096;17.190;2023-01-20T14:58:22;38.17;;;16.85;;
21927;SDS011;11128;51.096;17.190;2023-01-20T15:03:25;32.03;;;15.60;;
21927;SDS011;11128;51.096;17.190;2023-01-20T15:13:32;35.90;;;16.95;;
21927;SDS011;11128;51.096;17.190;2023-01-20T15:18:33;37.38;;;17.63;;
21927;SDS011;11128;51.096;17.190;2023-01-20T15:23:35;30.73;;;16.02;;
21927;SDS011;11128;51.096;17.190;2023-01-20T15:28:40;35.78;;;16.58;;
21927;SDS011;11128;51.096;17.190;2023-01-20T15:33:43;43.75;;;19.00;;
21927;SDS011;11128;51.096;17.190;2023-01-20T15:38:44;40.53;;;19.60;;
21927;SDS011;11128;51.096;17.190;2023-01-20T15:43:45;41.78;;;20.10;;
21927;SDS011;11128;51.096;17.190;2023-01-20T15:48:48;44.67;;;20.58;;
21927;SDS011;11128;51.096;17.190;2023-01-20T15:53:49;39.05;;;19.00;;
21927;SDS011;11128;51.096;17.190;2023-01-20T15:58:51;48.40;;;19.85;;
21927;SDS011;11128;51.096;17.190;2023-01-20T16:03:53;53.53;;;22.60;;
21927;SDS011;11128;51.096;17.190;2023-01-20T16:08:55;52.78;;;22.90;;
21927;SDS011;11128;51.096;17.190;2023-01-20T16:13:57;49.58;;;21.35;;
21927;SDS011;11128;51.096;17.190;2023-01-20T16:18:58;49.22;;;20.92;;
21927;SDS011;11128;51.096;17.190;2023-01-20T16:24:00;40.65;;;20.08;;
21927;SDS011;11128;51.096;17.190;2023-01-20T16:29:01;46.10;;;20.65;;
21927;SDS011;11128;51.096;17.190;2023-01-20T16:34:04;46.90;;;21.13;;
21927;SDS011;11128;51.096;17.190;2023-01-20T16:39:05;48.25;;;20.70;;
21927;SDS011;11128;51.096;17.190;2023-01-20T16:44:07;42.97;;;19.85;;
21927;SDS011;11128;51.096;17.190;2023-01-20T16:49:09;48.30;;;21.92;;
21927;SDS011;11128;51.096;17.190;2023-01-20T16:54:10;53.10;;;23.70;;
21927;SDS011;11128;51.096;17.190;2023-01-20T16:59:12;50.50;;;24.13;;
21927;SDS011;11128;51.096;17.190;2023-01-20T17:04:13;56.78;;;26.45;;
21927;SDS011;11128;51.096;17.190;2023-01-20T17:09:15;69.93;;;29.58;;
21927;SDS011;11128;51.096;17.190;2023-01-20T17:14:16;69.15;;;31.75;;
21927;SDS011;11128;51.096;17.190;2023-01-20T17:19:18;98.97;;;42.10;;
21927;SDS011;11128;51.096;17.190;2023-01-20T17:24:19;96.43;;;42.13;;
21927;SDS011;11128;51.096;17.190;2023-01-20T17:29:21;85.88;;;37.10;;
21927;SDS011;11128;51.096;17.190;2023-01-20T17:34:23;90.50;;;37.55;;
21927;SDS011;11128;51.096;17.190;2023-01-20T17:39:24;81.15;;;38.38;;
21927;SDS011;11128;51.096;17.190;2023-01-20T17:44:26;91.47;;;38.72;;
21927;SDS011;11128;51.096;17.190;2023-01-20T17:49:27;89.60;;;37.00;;
21927;SDS011;11128;51.096;17.190;2023-01-20T17:54:28;86.25;;;37.13;;
21927;SDS011;11128;51.096;17.190;2023-01-20T17:59:30;87.18;;;35.03;;
21927;SDS011;11128;51.096;17.190;2023-01-20T18:04:31;85.53;;;36.75;;
21927;SDS011;11128;51.096;17.190;2023-01-20T18:09:33;82.88;;;37.70;;
21927;SDS011;11128;51.096;17.190;2023-01-20T18:14:34;76.75;;;36.22;;
21927;SDS011;11128;51.096;17.190;2023-01-20T18:19:36;84.75;;;36.20;;
21927;SDS011;11128;51.096;17.190;2023-01-20T18:24:37;88.43;;;36.60;;
21927;SDS011;11128;51.096;17.190;2023-01-20T18:29:38;100.38;;;43.47;;
21927;SDS011;11128;51.096;17.190;2023-01-20T18:34:39;86.80;;;38.70;;
21927;SDS011;11128;51.096;17.190;2023-01-20T18:39:40;92.18;;;39.65;;
21927;SDS011;11128;51.096;17.190;2023-01-20T18:44:43;91.55;;;39.60;;
21927;SDS011;11128;51.096;17.190;2023-01-20T18:49:44;93.75;;;39.33;;
21927;SDS011;11128;51.096;17.190;2023-01-20T18:54:45;96.22;;;39.05;;
21927;SDS011;11128;51.096;17.190;2023-01-20T18:59:47;104.35;;;43.92;;
21927;SDS011;11128;51.096;17.190;2023-01-20T19:04:48;103.70;;;42.10;;
21927;SDS011;11128;51.096;17.190;2023-01-20T19:09:49;106.28;;;42.58;;
21927;SDS011;11128;51.096;17.190;2023-01-20T19:14:51;101.65;;;42.35;;
21927;SDS011;11128;51.096;17.190;2023-01-20T19:19:54;104.15;;;43.78;;
21927;SDS011;11128;51.096;17.190;2023-01-20T19:24:55;102.72;;;41.53;;
21927;SDS011;11128;51.096;17.190;2023-01-20T19:29:56;106.82;;;40.13;;
21927;SDS011;11128;51.096;17.190;2023-01-20T19:34:57;113.05;;;43.13;;
21927;SDS011;11128;51.096;17.190;2023-01-20T19:39:59;102.68;;;41.55;;
21927;SDS011;11128;51.096;17.190;2023-01-20T19:45:00;103.55;;;42.83;;
21927;SDS011;11128;51.096;17.190;2023-01-20T19:50:01;107.53;;;44.33;;
21927;SDS011;11128;51.096;17.190;2023-01-20T19:55:03;105.13;;;43.75;;
21927;SDS011;11128;51.096;17.190;2023-01-20T20:00:04;119.57;;;42.53;;
21927;SDS011;11128;51.096;17.190;2023-01-20T20:05:06;112.93;;;45.47;;
21927;SDS011;11128;51.096;17.190;2023-01-20T20:10:09;118.15;;;45.95;;
21927;SDS011;11128;51.096;17.190;2023-01-20T20:15:10;104.97;;;42.22;;
21927;SDS011;11128;51.096;17.190;2023-01-20T20:20:12;116.53;;;44.55;;
21927;SDS011;11128;51.096;17.190;2023-01-20T20:25:13;116.30;;;42.25;;
21927;SDS011;11128;51.096;17.190;2023-01-20T20:30:15;102.93;;;39.13;;
21927;SDS011;11128;51.096;17.190;2023-01-20T20:35:18;96.00;;;36.97;;
21927;SDS011;11128;51.096;17.190;2023-01-20T20:40:20;101.45;;;38.67;;
21927;SDS011;11128;51.096;17.190;2023-01-20T20:45:24;105.68;;;39.17;;
21927;SDS011;11128;51.096;17.190;2023-01-20T20:50:26;110.03;;;41.03;;
21927;SDS011;11128;51.096;17.190;2023-01-20T20:55:27;100.10;;;38.13;;
21927;SDS011;11128;51.096;17.190;2023-01-20T21:00:28;108.30;;;39.95;;
21927;SDS011;11128;51.096;17.190;2023-01-20T21:05:30;112.43;;;39.92;;
21927;SDS011;11128;51.096;17.190;2023-01-20T21:10:33;104.65;;;38.13;;
21927;SDS011;11128;51.096;17.190;2023-01-20T21:15:34;98.25;;;36.45;;
21927;SDS011;11128;51.096;17.190;2023-01-20T21:20:38;104.43;;;35.67;;
21927;SDS011;11128;51.096;17.190;2023-01-20T21:25:39;92.78;;;31.88;;
21927;SDS011;11128;51.096;17.190;2023-01-20T21:30:40;100.65;;;33.28;;
21927;SDS011;11128;51.096;17.190;2023-01-20T21:35:45;87.05;;;28.45;;
21927;SDS011;11128;51.096;17.190;2023-01-20T21:40:47;90.85;;;30.52;;
21927;SDS011;11128;51.096;17.190;2023-01-20T21:46:00;98.80;;;30.60;;
21927;SDS011;11128;51.096;17.190;2023-01-20T21:51:01;92.15;;;28.40;;
21927;SDS011;11128;51.096;17.190;2023-01-20T21:56:21;90.97;;;28.63;;
21927;SDS011;11128;51.096;17.190;2023-01-20T22:01:22;84.95;;;27.50;;
21927;SDS011;11128;51.096;17.190;2023-01-20T22:06:23;91.75;;;26.38;;
21927;SDS011;11128;51.096;17.190;2023-01-20T22:11:25;84.75;;;24.45;;
21927;SDS011;11128;51.096;17.190;2023-01-20T22:16:27;89.15;;;26.67;;
21927;SDS011;11128;51.096;17.190;2023-01-20T22:21:28;85.03;;;26.13;;
21927;SDS011;11128;51.096;17.190;2023-01-20T22:26:31;94.95;;;29.63;;
21927;SDS011;11128;51.096;17.190;2023-01-20T22:31:32;104.57;;;30.17;;
21927;SDS011;11128;51.096;17.190;2023-01-20T22:36:35;110.88;;;32.13;;
21927;SDS011;11128;51.096;17.190;2023-01-20T22:41:37;107.50;;;31.48;;
21927;SDS011;11128;51.096;17.190;2023-01-20T22:46:39;116.47;;;31.90;;
21927;SDS011;11128;51.096;17.190;2023-01-20T22:51:40;123.82;;;37.20;;
21927;SDS011;11128;51.096;17.190;2023-01-20T22:56:41;104.82;;;31.67;;
21927;SDS011;11128;51.096;17.190;2023-01-20T23:01:43;103.25;;;30.83;;
21927;SDS011;11128;51.096;17.190;2023-01-20T23:06:44;97.18;;;26.88;;
21927;SDS011;11128;51.096;17.190;2023-01-20T23:11:46;97.53;;;29.30;;
21927;SDS011;11128;51.096;17.190;2023-01-20T23:16:48;89.53;;;27.67;;
21927;SDS011;11128;51.096;17.190;2023-01-20T23:21:49;89.50;;;25.45;;
21927;SDS011;11128;51.096;17.190;2023-01-20T23:26:50;97.97;;;27.60;;
21927;SDS011;11128;51.096;17.190;2023-01-20T23:31:51;94.13;;;26.70;;
21927;SDS011;11128;51.096;17.190;2023-01-20T23:36:53;86.43;;;26.35;;
21927;SDS011;11128;51.096;17.190;2023-01-20T23:41:54;83.93;;;25.92;;
21927;SDS011;11128;51.096;17.190;2023-01-20T23:46:56;67.25;;;23.48;;
21927;SDS011;11128;51.096;17.190;2023-01-20T23:51:57;78.43;;;24.63;;
21927;SDS011;11128;51.096;17.190;2023-01-20T23:56:58;76.03;;;24.30;;
